ADDS METAR Data INFO
IDs: Format: Raw Decoded Include TAF

Data at: 0251 UTC 21 Oct 2017

KLWV 210153Z AUTO 15008KT 10SM CLR 16/11 A3013 RMK AO2 SLP202 T01560106
KLWV 210053Z AUTO 17007KT 10SM CLR 16/11 A3014 RMK AO2 SLP206 T01560111
KLWV 202353Z AUTO 13008KT 10SM CLR 18/11 A3014 RMK AO2 SLP204 T01780111 10256 20172 56005
KLWV 202253Z AUTO 17006KT 10SM CLR 20/11 A3014 RMK AO2 SLP205 T02000111
KLWV 202153Z AUTO 17009KT 10SM CLR 24/11 A3014 RMK AO2 SLP202 T02440106
KLWV 202053Z AUTO 18008KT 10SM CLR 25/11 A3015 RMK AO2 SLP208 T02500106 56022
KLWV 201953Z AUTO 16009KT 10SM CLR 25/12 A3016 RMK AO2 SLP209 T02500117
KLWV 201853Z AUTO 17008KT 10SM CLR 24/12 A3018 RMK AO2 SLP216 T02440122
KLWV 201753Z AUTO 18009KT 10SM CLR 23/12 A3022 RMK AO2 SLP230 T02330122 10233 20094 58020
KLWV 201653Z AUTO 20010KT 10SM CLR 22/12 A3026 RMK AO2 SLP243 T02220122
KLWV 201553Z AUTO 21005KT 10SM CLR 20/13 A3026 RMK AO2 SLP245 T02000128
KLWV 201453Z AUTO 18005KT 10SM CLR 17/13 A3028 RMK AO2 SLP252 T01720128 50004
KLWV 201353Z AUTO 16004KT 10SM CLR 14/12 A3028 RMK AO2 SLP253 T01390117
KLWV 201253Z AUTO 00000KT 3SM BR CLR 11/10 A3027 RMK AO2 SLP251 T01060100
KLWV 201240Z AUTO 00000KT 3SM BR CLR 11/09 A3027 RMK AO2 T01060094
KLWV 201230Z AUTO 00000KT 1 3/4SM BR CLR 10/09 A3027 RMK AO2 T01000089
KLWV 201201Z AUTO 00000KT 1/2SM FG CLR 09/08 A3026 RMK AO2 T00940083
KLWV 201152Z AUTO 00000KT 1 1/4SM BR CLR 10/09 A3026 RMK AO2 VIS 1/2V3 SLP247 T01000089 10128 20094 53013
KLWV 201151Z AUTO 00000KT 1 1/2SM BR CLR 10/09 A3026 RMK AO2 VIS 1/2V5
KLWV 201136Z AUTO 00000KT 3SM BR CLR 09/08 A3026 RMK AO2 T00940083
KLWV 201125Z AUTO 00000KT 1 3/4SM BR CLR 10/09 A3025 RMK AO2 T01000089
KLWV 201053Z AUTO 00000KT 3SM BR CLR 10/09 A3025 RMK AO2 SLP242 T01000089
KLWV 200953Z AUTO 00000KT 7SM CLR 11/09 A3024 RMK AO2 SLP237 T01060094
KLWV 200853Z AUTO 00000KT 8SM CLR 11/09 A3022 RMK AO2 SLP233 T01060094 51004
KLWV 200753Z AUTO 00000KT 10SM CLR 12/10 A3022 RMK AO2 SLP232 T01170100
KLWV 200653Z AUTO 00000KT 10SM CLR 12/10 A3022 RMK AO2 SLP231 T01170100
KLWV 200553Z AUTO 00000KT 10SM CLR 13/11 A3021 RMK AO2 SLP229 T01280106 10183 20122 402500089 52002
KLWV 200453Z AUTO 00000KT 10SM CLR 13/11 A3021 RMK AO2 SLP228 T01280111
KLWV 200353Z AUTO 00000KT 10SM CLR 14/11 A3021 RMK AO2 SLP229 T01440111
KLWV 200253Z AUTO 00000KT 10SM CLR 14/11 A3021 RMK AO2 SLP228 T01390111 51006
KLWV 200153Z AUTO 19005KT 10SM CLR 16/11 A3020 RMK AO2 SLP225 T01610111
KLWV 200053Z AUTO 17004KT 10SM CLR 16/12 A3020 RMK AO2 SLP226 T01610122
KLWV 192353Z AUTO 17007KT 10SM CLR 18/12 A3019 RMK AO2 SLP222 T01830117 10250 20183 53005
KLWV 192253Z AUTO 18006KT 10SM CLR 21/12 A3018 RMK AO2 SLP219 T02110122
KLWV 192153Z AUTO 20005KT 9SM CLR 24/11 A3018 RMK AO2 SLP217 T02440111
KLWV 192053Z AUTO 22005KT 9SM CLR 25/11 A3018 RMK AO2 SLP216 T02500111 56013
KLWV 191953Z AUTO 22006KT 10SM CLR 24/11 A3018 RMK AO2 SLP217 T02440111
KLWV 191853Z AUTO 22007KT 10SM CLR 23/12 A3019 RMK AO2 SLP222 T02330117
KLWV 191753Z AUTO VRB03KT 10SM CLR 22/12 A3021 RMK AO2 SLP230 T02220117 10222 20089 58005
KLWV 191653Z AUTO 21004KT 10SM CLR 21/12 A3023 RMK AO2 SLP237 T02110117
KLWV 191553Z AUTO 23007KT 10SM CLR 19/11 A3024 RMK AO2 SLP238 T01890111
KLWV 191453Z AUTO 22011KT 10SM CLR 17/11 A3023 RMK AO2 SLP236 T01670106 53011